KAUS/AUS METAR and TAF weather

Enter ICAO airport designator
Station Type Date Time Source
KAUS METAR 2022/09/26 09:53 UTC NOAA

KAUS 260953Z 00000KT 10SM BKN090 23/20 A2999 RMK AO2 SLP142 T02280200 $


Station Type Date Time Source
KAUS Decoded METAR 2022/09/26 09:53 UTC NOAA

AUSTIN-BERGSTROM INTERNATIONAL AIRPORT, TX, United States (KAUS) 30-11N 097-41W 172M
Sep 26, 2022 - 05:53 AM EDT / 2022.09.26 0953 UTC
Wind: Calm:0
Visibility: 10 mile(s):0
Sky conditions: mostly cloudy
Temperature: 73.0 F (22.8 C)
Dew Point: 68.0 F (20.0 C)
Relative Humidity: 84%
Pressure (altimeter): 29.99 in. Hg (1015 hPa)
ob: KAUS 260953Z 00000KT 10SM BKN090 23/20 A2999 RMK AO2 SLP142 T02280200
cycle: 10

Station Type Date Time Source
KAUS TAF 2022/09/26 06:22 UTC NOAA

TAF KAUS 260520Z 2606/2712 VRB04KT P6SM FEW070
FM260900 35006KT P6SM FEW250
FM261600 02011G21KT P6SM FEW250
FM270000 02008KT P6SM FEW250

Example: see airport list